SWA933 KBNA-KBOS
Flight info
| Callsign | SWA933 |
|---|---|
| Flight time | N/A |
| Altitude | 39000 |
| Route | CHADM4 MUNNY TONIO Q34 RBV Q419 JFK ROBUC3 |
| Aircraft | B738/M-SDE2E3FGHIRWXY/LB1 |
Departure
| Time | 2026-05-08 02:02 |
|---|---|
| Airport | Nashville International Airport (KBNA) |
Arrival
| Time | N/A |
|---|---|
| Airport | Boston Logan International Airport (KBOS) |
| Time | Latitude | Longitude | Altitude | Speed | Heading |
|---|---|---|---|---|---|
| 2026-05-08 01:36 | 36.12716 | -86.66680 | 570 ft | 0 kts | 108° |
| 2026-05-08 01:42 | 36.12717 | -86.66680 | 569 ft | 0 kts | 108° |
| 2026-05-08 01:51 | 36.12717 | -86.66684 | 569 ft | 3 kts | 109° |
| 2026-05-08 01:51 | 36.12728 | -86.66713 | 573 ft | 4 kts | 125° |
| 2026-05-08 01:51 | 36.12746 | -86.66735 | 569 ft | 4 kts | 161° |
| 2026-05-08 01:51 | 36.12765 | -86.66736 | 574 ft | 1 kts | 206° |
| 2026-05-08 01:52 | 36.12769 | -86.66734 | 568 ft | 1 kts | 206° |
| 2026-05-08 01:54 | 36.12755 | -86.66743 | 569 ft | 5 kts | 206° |
| 2026-05-08 01:55 | 36.12717 | -86.66770 | 568 ft | 7 kts | 216° |
| 2026-05-08 01:55 | 36.12701 | -86.66787 | 568 ft | 1 kts | 220° |
| 2026-05-08 01:55 | 36.12694 | -86.66794 | 568 ft | 1 kts | 220° |
| 2026-05-08 01:55 | 36.12680 | -86.66809 | 569 ft | 5 kts | 221° |
| 2026-05-08 01:56 | 36.12631 | -86.66864 | 572 ft | 13 kts | 227° |
| 2026-05-08 01:56 | 36.12667 | -86.66961 | 568 ft | 16 kts | 309° |
| 2026-05-08 01:56 | 36.12743 | -86.67069 | 568 ft | 18 kts | 311° |
| 2026-05-08 01:56 | 36.12828 | -86.67188 | 574 ft | 19 kts | 312° |
| 2026-05-08 01:57 | 36.12841 | -86.67289 | 570 ft | 12 kts | 224° |
| 2026-05-08 01:57 | 36.12777 | -86.67363 | 574 ft | 13 kts | 223° |
| 2026-05-08 01:57 | 36.12692 | -86.67396 | 577 ft | 15 kts | 147° |
| 2026-05-08 01:57 | 36.12607 | -86.67287 | 576 ft | 20 kts | 133° |
| 2026-05-08 01:58 | 36.12503 | -86.67146 | 576 ft | 24 kts | 132° |
| 2026-05-08 01:58 | 36.12389 | -86.67000 | 575 ft | 23 kts | 133° |
| 2026-05-08 01:58 | 36.12288 | -86.66846 | 571 ft | 23 kts | 111° |
| 2026-05-08 01:58 | 36.12240 | -86.66661 | 570 ft | 24 kts | 107° |
| 2026-05-08 01:59 | 36.12172 | -86.66558 | 568 ft | 16 kts | 196° |
| 2026-05-08 01:59 | 36.12068 | -86.66592 | 577 ft | 15 kts | 196° |
| 2026-05-08 01:59 | 36.11960 | -86.66635 | 577 ft | 20 kts | 198° |
| 2026-05-08 01:59 | 36.11807 | -86.66696 | 582 ft | 25 kts | 198° |
| 2026-05-08 02:00 | 36.11638 | -86.66763 | 586 ft | 27 kts | 198° |
| 2026-05-08 02:00 | 36.11457 | -86.66837 | 591 ft | 26 kts | 198° |
| 2026-05-08 02:00 | 36.11347 | -86.66879 | 591 ft | 6 kts | 195° |
| 2026-05-08 02:00 | 36.11307 | -86.66858 | 590 ft | 9 kts | 120° |
| 2026-05-08 02:01 | 36.11290 | -86.66775 | 589 ft | 8 kts | 86° |
| 2026-05-08 02:01 | 36.11344 | -86.66739 | 590 ft | 18 kts | 18° |
| 2026-05-08 02:01 | 36.11768 | -86.66570 | 582 ft | 110 kts | 18° |
| 2026-05-08 02:01 | 36.12745 | -86.66173 | 691 ft | 175 kts | 19° |
| 2026-05-08 02:02 | 36.13529 | -86.65807 | 1267 ft | 186 kts | 20° |
| 2026-05-08 02:02 | 36.14716 | -86.65194 | 2501 ft | 187 kts | 25° |
| 2026-05-08 02:02 | 36.15756 | -86.64085 | 3038 ft | 213 kts | 48° |
| 2026-05-08 02:02 | 36.16808 | -86.62652 | 3423 ft | 233 kts | 44° |
| 2026-05-08 02:03 | 36.18004 | -86.61140 | 3798 ft | 255 kts | 44° |
| 2026-05-08 02:03 | 36.19276 | -86.59541 | 4648 ft | 262 kts | 44° |
| 2026-05-08 02:03 | 36.20554 | -86.57929 | 5696 ft | 264 kts | 45° |
| 2026-05-08 02:03 | 36.21757 | -86.56176 | 6513 ft | 271 kts | 60° |
| 2026-05-08 02:04 | 36.22225 | -86.53929 | 6917 ft | 276 kts | 90° |
| 2026-05-08 02:04 | 36.21919 | -86.51535 | 7004 ft | 285 kts | 105° |
| 2026-05-08 02:04 | 36.21324 | -86.49196 | 7058 ft | 286 kts | 108° |
| 2026-05-08 02:04 | 36.20692 | -86.46820 | 7566 ft | 293 kts | 107° |
| 2026-05-08 02:05 | 36.20068 | -86.44405 | 8478 ft | 298 kts | 107° |
| 2026-05-08 02:05 | 36.19612 | -86.41879 | 9252 ft | 305 kts | 91° |
| 2026-05-08 02:05 | 36.19613 | -86.39225 | 10060 ft | 312 kts | 85° |
| 2026-05-08 02:05 | 36.19682 | -86.36475 | 10540 ft | 331 kts | 85° |
| 2026-05-08 02:06 | 36.19755 | -86.33549 | 10779 ft | 355 kts | 86° |
| 2026-05-08 02:06 | 36.19816 | -86.30386 | 11309 ft | 369 kts | 86° |
| 2026-05-08 02:06 | 36.19862 | -86.27218 | 12005 ft | 377 kts | 87° |
| 2026-05-08 02:06 | 36.19899 | -86.23895 | 12701 ft | 385 kts | 88° |
| 2026-05-08 02:07 | 36.19930 | -86.20590 | 13381 ft | 393 kts | 88° |
| 2026-05-08 02:07 | 36.19960 | -86.17120 | 14015 ft | 403 kts | 88° |
| 2026-05-08 02:07 | 36.19989 | -86.13672 | 14649 ft | 407 kts | 88° |
| 2026-05-08 02:07 | 36.20018 | -86.10150 | 14958 ft | 409 kts | 88° |
| 2026-05-08 02:08 | 36.20117 | -86.06620 | 15003 ft | 413 kts | 80° |
| 2026-05-08 02:08 | 36.20700 | -86.03140 | 15570 ft | 415 kts | 73° |
| 2026-05-08 02:08 | 36.21415 | -85.99674 | 16328 ft | 417 kts | 72° |
| 2026-05-08 02:08 | 36.22140 | -85.96173 | 16986 ft | 423 kts | 72° |
| 2026-05-08 02:09 | 36.22854 | -85.92615 | 17659 ft | 428 kts | 72° |
| 2026-05-08 02:09 | 36.23552 | -85.89014 | 18336 ft | 433 kts | 73° |
| 2026-05-08 02:09 | 36.24241 | -85.85362 | 18893 ft | 439 kts | 73° |
| 2026-05-08 02:09 | 36.24934 | -85.81662 | 19498 ft | 443 kts | 73° |
| 2026-05-08 02:10 | 36.25643 | -85.77932 | 20060 ft | 447 kts | 72° |
| 2026-05-08 02:10 | 36.26550 | -85.74237 | 20631 ft | 450 kts | 66° |
| 2026-05-08 02:10 | 36.27617 | -85.70578 | 21183 ft | 454 kts | 65° |
| 2026-05-08 02:10 | 36.28733 | -85.66899 | 21719 ft | 459 kts | 65° |
| 2026-05-08 02:11 | 36.29851 | -85.63175 | 22268 ft | 463 kts | 65° |
| 2026-05-08 02:11 | 36.30951 | -85.59404 | 22810 ft | 467 kts | 66° |
| 2026-05-08 02:11 | 36.32039 | -85.55586 | 23319 ft | 472 kts | 66° |
| 2026-05-08 02:11 | 36.33126 | -85.51723 | 23765 ft | 478 kts | 66° |
| 2026-05-08 02:12 | 36.34226 | -85.47804 | 24150 ft | 484 kts | 66° |
| 2026-05-08 02:12 | 36.35338 | -85.43844 | 24533 ft | 489 kts | 66° |
| 2026-05-08 02:12 | 36.36516 | -85.39867 | 24897 ft | 494 kts | 64° |
| 2026-05-08 02:12 | 36.37766 | -85.35878 | 25242 ft | 499 kts | 63° |
| 2026-05-08 02:13 | 36.39050 | -85.31854 | 25620 ft | 504 kts | 63° |
| 2026-05-08 02:13 | 36.40345 | -85.27783 | 25973 ft | 510 kts | 63° |
| 2026-05-08 02:13 | 36.41643 | -85.23666 | 26366 ft | 515 kts | 63° |
| 2026-05-08 02:13 | 36.42944 | -85.19496 | 26698 ft | 520 kts | 63° |
| 2026-05-08 02:14 | 36.44249 | -85.15282 | 27048 ft | 525 kts | 64° |
| 2026-05-08 02:14 | 36.45561 | -85.11029 | 27405 ft | 530 kts | 64° |
| 2026-05-08 02:14 | 36.46881 | -85.06740 | 27769 ft | 534 kts | 64° |
| 2026-05-08 02:14 | 36.48213 | -85.02414 | 28070 ft | 539 kts | 64° |
| 2026-05-08 02:15 | 36.49560 | -84.98042 | 28313 ft | 545 kts | 63° |
| 2026-05-08 02:15 | 36.50948 | -84.93636 | 28610 ft | 548 kts | 61° |
| 2026-05-08 02:15 | 36.52520 | -84.89333 | 29039 ft | 547 kts | 57° |
| 2026-05-08 02:15 | 36.54207 | -84.85149 | 29350 ft | 549 kts | 55° |
| 2026-05-08 02:16 | 36.55981 | -84.80923 | 29597 ft | 554 kts | 55° |
| 2026-05-08 02:16 | 36.57781 | -84.76654 | 29860 ft | 559 kts | 55° |
| 2026-05-08 02:16 | 36.59573 | -84.72343 | 30171 ft | 563 kts | 56° |
| 2026-05-08 02:16 | 36.61351 | -84.67986 | 30441 ft | 566 kts | 56° |
| 2026-05-08 02:17 | 36.63116 | -84.63593 | 30760 ft | 570 kts | 56° |
| 2026-05-08 02:17 | 36.64876 | -84.59166 | 31116 ft | 570 kts | 56° |
| 2026-05-08 02:17 | 36.66628 | -84.54732 | 31400 ft | 572 kts | 57° |
| 2026-05-08 02:17 | 36.68388 | -84.50275 | 31687 ft | 574 kts | 56° |
| 2026-05-08 02:18 | 36.70149 | -84.45809 | 31989 ft | 575 kts | 56° |
| 2026-05-08 02:18 | 36.71917 | -84.41329 | 32291 ft | 576 kts | 56° |
| 2026-05-08 02:18 | 36.73687 | -84.36842 | 32633 ft | 577 kts | 56° |
| 2026-05-08 02:18 | 36.75457 | -84.32354 | 32964 ft | 578 kts | 56° |
| 2026-05-08 02:19 | 36.77231 | -84.27849 | 33243 ft | 579 kts | 56° |
| 2026-05-08 02:19 | 36.79006 | -84.23337 | 33527 ft | 580 kts | 56° |
| 2026-05-08 02:19 | 36.80783 | -84.18813 | 33856 ft | 580 kts | 56° |
| 2026-05-08 02:19 | 36.82557 | -84.14290 | 34182 ft | 581 kts | 56° |
| 2026-05-08 02:20 | 36.84327 | -84.09766 | 34510 ft | 580 kts | 56° |
| 2026-05-08 02:20 | 36.86093 | -84.05245 | 35009 ft | 577 kts | 56° |
| 2026-05-08 02:20 | 36.87849 | -84.00740 | 35353 ft | 575 kts | 56° |
| 2026-05-08 02:20 | 36.89595 | -83.96259 | 35697 ft | 573 kts | 56° |
| 2026-05-08 02:21 | 36.91336 | -83.91790 | 36039 ft | 571 kts | 56° |
| 2026-05-08 02:21 | 36.93071 | -83.87330 | 36386 ft | 569 kts | 56° |
| 2026-05-08 02:21 | 36.94795 | -83.82887 | 36707 ft | 568 kts | 56° |
| 2026-05-08 02:21 | 36.96519 | -83.78443 | 37043 ft | 567 kts | 56° |
| 2026-05-08 02:22 | 36.98231 | -83.74015 | 37344 ft | 566 kts | 56° |
| 2026-05-08 02:22 | 36.99941 | -83.69592 | 37677 ft | 564 kts | 56° |
| 2026-05-08 02:22 | 37.01653 | -83.65168 | 37961 ft | 564 kts | 56° |
| 2026-05-08 02:22 | 37.03359 | -83.60743 | 38228 ft | 565 kts | 56° |
| 2026-05-08 02:23 | 37.05058 | -83.56329 | 38547 ft | 562 kts | 56° |
| 2026-05-08 02:23 | 37.06748 | -83.51931 | 38932 ft | 559 kts | 56° |
| 2026-05-08 02:23 | 37.08432 | -83.47545 | 39043 ft | 561 kts | 56° |
| 2026-05-08 02:23 | 37.10128 | -83.43129 | 39027 ft | 563 kts | 56° |
| 2026-05-08 02:24 | 37.13518 | -83.34277 | 39041 ft | 566 kts | 56° |
| 2026-05-08 02:24 | 37.16939 | -83.25315 | 39048 ft | 574 kts | 56° |
| 2026-05-08 02:25 | 37.20401 | -83.16215 | 39033 ft | 580 kts | 57° |
| 2026-05-08 02:25 | 37.23867 | -83.07052 | 39034 ft | 582 kts | 57° |
| 2026-05-08 02:26 | 37.27067 | -82.97761 | 39100 ft | 586 kts | 63° |
| 2026-05-08 02:26 | 37.29779 | -82.88068 | 39043 ft | 582 kts | 65° |
| 2026-05-08 02:27 | 37.32373 | -82.78525 | 39019 ft | 581 kts | 64° |
| 2026-05-08 02:27 | 37.35042 | -82.68973 | 39042 ft | 578 kts | 64° |
| 2026-05-08 02:28 | 37.37699 | -82.59461 | 39043 ft | 575 kts | 64° |
| 2026-05-08 02:28 | 37.40384 | -82.49975 | 39068 ft | 578 kts | 64° |
| 2026-05-08 02:29 | 37.43093 | -82.40381 | 39028 ft | 585 kts | 64° |
| 2026-05-08 02:29 | 37.45794 | -82.30692 | 39023 ft | 588 kts | 65° |
| 2026-05-08 02:30 | 37.48485 | -82.20985 | 39028 ft | 585 kts | 65° |
| 2026-05-08 02:30 | 37.51140 | -82.11381 | 39014 ft | 577 kts | 65° |
| 2026-05-08 02:31 | 37.53784 | -82.01844 | 39026 ft | 576 kts | 65° |
| 2026-05-08 02:31 | 37.56419 | -81.92278 | 39011 ft | 579 kts | 65° |
| 2026-05-08 02:32 | 37.59060 | -81.82678 | 39029 ft | 580 kts | 65° |
| 2026-05-08 02:32 | 37.61687 | -81.73043 | 39024 ft | 581 kts | 65° |
| 2026-05-08 02:33 | 37.64301 | -81.63402 | 39013 ft | 581 kts | 65° |
| 2026-05-08 02:33 | 37.66894 | -81.53815 | 39053 ft | 582 kts | 66° |
| 2026-05-08 02:34 | 37.69496 | -81.44148 | 39032 ft | 580 kts | 66° |
| 2026-05-08 02:34 | 37.72085 | -81.34506 | 39032 ft | 579 kts | 66° |
| 2026-05-08 02:35 | 37.74655 | -81.24869 | 39021 ft | 578 kts | 66° |
| 2026-05-08 02:35 | 37.77209 | -81.15246 | 39019 ft | 578 kts | 68° |
| 2026-05-08 02:36 | 37.78700 | -81.05229 | 39038 ft | 583 kts | 84° |
| 2026-05-08 02:36 | 37.79267 | -80.94989 | 39023 ft | 584 kts | 85° |
| 2026-05-08 02:37 | 37.79835 | -80.84751 | 39024 ft | 584 kts | 84° |
| 2026-05-08 02:37 | 37.80492 | -80.74511 | 39026 ft | 584 kts | 84° |
| 2026-05-08 02:38 | 37.81168 | -80.64269 | 39009 ft | 585 kts | 84° |
| 2026-05-08 02:38 | 37.81823 | -80.54016 | 39065 ft | 585 kts | 84° |
| 2026-05-08 02:39 | 37.82464 | -80.43812 | 39027 ft | 585 kts | 84° |
| 2026-05-08 02:39 | 37.83108 | -80.33554 | 39016 ft | 585 kts | 84° |
| 2026-05-08 02:40 | 37.83746 | -80.23308 | 39023 ft | 584 kts | 84° |
| 2026-05-08 02:40 | 37.84374 | -80.13052 | 39012 ft | 585 kts | 84° |
| 2026-05-08 02:41 | 37.84731 | -80.02800 | 38962 ft | 576 kts | 97° |
| 2026-05-08 02:41 | 37.84533 | -79.97787 | 38932 ft | 568 kts | 84° |
| 2026-05-08 02:41 | 37.85118 | -79.92857 | 38948 ft | 568 kts | 77° |
| 2026-05-08 02:42 | 37.85745 | -79.87925 | 39143 ft | 569 kts | 79° |
| 2026-05-08 02:42 | 37.86212 | -79.82929 | 39042 ft | 576 kts | 83° |
| 2026-05-08 02:42 | 37.86777 | -79.72758 | 38992 ft | 581 kts | 85° |
| 2026-05-08 02:43 | 37.87121 | -79.62537 | 39073 ft | 582 kts | 87° |
| 2026-05-08 02:43 | 37.87403 | -79.52310 | 39070 ft | 581 kts | 87° |
| 2026-05-08 02:44 | 37.87718 | -79.42091 | 39053 ft | 581 kts | 86° |
| 2026-05-08 02:44 | 37.88071 | -79.31896 | 39054 ft | 579 kts | 83° |
| 2026-05-08 02:45 | 37.89120 | -79.21821 | 39024 ft | 576 kts | 78° |
| 2026-05-08 02:45 | 37.90437 | -79.11829 | 38991 ft | 576 kts | 78° |
| 2026-05-08 02:46 | 37.92382 | -79.02172 | 38961 ft | 563 kts | 62° |
| 2026-05-08 02:46 | 37.94066 | -78.97747 | 38944 ft | 553 kts | 51° |
| 2026-05-08 02:46 | 37.95993 | -78.93534 | 38965 ft | 555 kts | 55° |
| 2026-05-08 02:47 | 37.98993 | -78.84434 | 38961 ft | 564 kts | 68° |
| 2026-05-08 02:47 | 38.00697 | -78.74684 | 38949 ft | 569 kts | 81° |
| 2026-05-08 02:48 | 38.01056 | -78.64651 | 38943 ft | 569 kts | 91° |
| 2026-05-08 02:48 | 38.00583 | -78.54652 | 38941 ft | 564 kts | 104° |
| 2026-05-08 02:49 | 37.99614 | -78.49929 | 38951 ft | 543 kts | 115° |
| 2026-05-08 02:49 | 37.98164 | -78.45618 | 38930 ft | 521 kts | 126° |
| 2026-05-08 02:49 | 37.94862 | -78.37511 | 38689 ft | 523 kts | 124° |
| 2026-05-08 02:50 | 37.93220 | -78.33356 | 38434 ft | 531 kts | 124° |
| 2026-05-08 02:50 | 37.92137 | -78.30577 | 38247 ft | 534 kts | 123° |
| 2026-05-08 02:50 | 37.90507 | -78.26349 | 37953 ft | 534 kts | 123° |
| 2026-05-08 02:50 | 37.88889 | -78.22123 | 37667 ft | 533 kts | 123° |
| 2026-05-08 02:51 | 37.87271 | -78.17901 | 37386 ft | 533 kts | 123° |
| 2026-05-08 02:51 | 37.85648 | -78.13680 | 37105 ft | 533 kts | 123° |
| 2026-05-08 02:51 | 37.84020 | -78.09459 | 36836 ft | 533 kts | 124° |
| 2026-05-08 02:51 | 37.82388 | -78.05247 | 36561 ft | 534 kts | 124° |
| 2026-05-08 02:52 | 37.80754 | -78.01036 | 36287 ft | 534 kts | 124° |
| 2026-05-08 02:52 | 37.79109 | -77.96807 | 36017 ft | 535 kts | 124° |
| 2026-05-08 02:52 | 37.77462 | -77.92577 | 35754 ft | 536 kts | 124° |
| 2026-05-08 02:52 | 37.75814 | -77.88351 | 35424 ft | 537 kts | 124° |
| 2026-05-08 02:53 | 37.74156 | -77.84104 | 34706 ft | 541 kts | 124° |
| 2026-05-08 02:53 | 37.72482 | -77.79824 | 33733 ft | 548 kts | 125° |
| 2026-05-08 02:53 | 37.70773 | -77.75464 | 32568 ft | 557 kts | 124° |
| 2026-05-08 02:53 | 37.69053 | -77.71064 | 31621 ft | 563 kts | 123° |
| 2026-05-08 02:54 | 37.67349 | -77.66609 | 30979 ft | 564 kts | 118° |
| 2026-05-08 02:54 | 37.66322 | -77.61854 | 30451 ft | 562 kts | 98° |
| 2026-05-08 02:54 | 37.66287 | -77.57039 | 29841 ft | 551 kts | 82° |
| 2026-05-08 02:54 | 37.67100 | -77.52388 | 29068 ft | 537 kts | 66° |
| 2026-05-08 02:55 | 37.68656 | -77.48198 | 28241 ft | 519 kts | 51° |
| 2026-05-08 02:55 | 37.73383 | -77.41842 | 26757 ft | 474 kts | 25° |
| 2026-05-08 02:55 | 37.76092 | -77.39728 | 26012 ft | 457 kts | 14° |
| 2026-05-08 02:56 | 37.78996 | -77.38321 | 25471 ft | 438 kts | 3° |
| 2026-05-08 02:56 | 37.81910 | -77.37422 | 25092 ft | 425 kts | 359° |
| 2026-05-08 02:56 | 37.84785 | -77.36653 | 24667 ft | 421 kts | 359° |
| 2026-05-08 02:56 | 37.87643 | -77.35843 | 24150 ft | 420 kts | 0° |
| 2026-05-08 02:57 | 37.90502 | -77.34983 | 23578 ft | 423 kts | 1° |
| 2026-05-08 02:57 | 37.93343 | -77.34104 | 23120 ft | 418 kts | 1° |
| 2026-05-08 02:57 | 37.96149 | -77.33231 | 22686 ft | 412 kts | 1° |
| 2026-05-08 02:57 | 37.98921 | -77.32372 | 22242 ft | 409 kts | 1° |
| 2026-05-08 02:58 | 38.01678 | -77.31523 | 21723 ft | 407 kts | 2° |
| 2026-05-08 02:58 | 38.04421 | -77.30679 | 21237 ft | 404 kts | 2° |
| 2026-05-08 02:58 | 38.07140 | -77.29840 | 20778 ft | 401 kts | 2° |
| 2026-05-08 02:58 | 38.09837 | -77.28998 | 20331 ft | 398 kts | 3° |
| 2026-05-08 02:59 | 38.12516 | -77.28156 | 19872 ft | 395 kts | 3° |
| 2026-05-08 02:59 | 38.15178 | -77.27318 | 19428 ft | 393 kts | 3° |
| 2026-05-08 02:59 | 38.17822 | -77.26486 | 18991 ft | 390 kts | 4° |
| 2026-05-08 02:59 | 38.20452 | -77.25657 | 18602 ft | 388 kts | 4° |
| 2026-05-08 03:00 | 38.23060 | -77.24737 | 18132 ft | 389 kts | 7° |
| 2026-05-08 03:00 | 38.25649 | -77.23737 | 17637 ft | 388 kts | 8° |
| 2026-05-08 03:00 | 38.28214 | -77.22731 | 17170 ft | 384 kts | 8° |
| 2026-05-08 03:00 | 38.30737 | -77.21749 | 16575 ft | 377 kts | 8° |
| 2026-05-08 03:01 | 38.33241 | -77.20795 | 15821 ft | 375 kts | 8° |
| 2026-05-08 03:01 | 38.35729 | -77.19853 | 15095 ft | 372 kts | 8° |
| 2026-05-08 03:01 | 38.38196 | -77.18916 | 14422 ft | 368 kts | 9° |
| 2026-05-08 03:01 | 38.40638 | -77.17977 | 13773 ft | 364 kts | 9° |
| 2026-05-08 03:02 | 38.43045 | -77.17046 | 13124 ft | 359 kts | 10° |
| 2026-05-08 03:02 | 38.45408 | -77.16129 | 12546 ft | 351 kts | 10° |
| 2026-05-08 03:02 | 38.47723 | -77.15233 | 11935 ft | 344 kts | 10° |
| 2026-05-08 03:02 | 38.49994 | -77.14355 | 11358 ft | 337 kts | 10° |
| 2026-05-08 03:03 | 38.52195 | -77.13502 | 11063 ft | 323 kts | 10° |
| 2026-05-08 03:03 | 38.54284 | -77.12689 | 10898 ft | 305 kts | 9° |
| 2026-05-08 03:03 | 38.56279 | -77.11915 | 10634 ft | 294 kts | 9° |
| 2026-05-08 03:03 | 38.58196 | -77.11174 | 10364 ft | 283 kts | 9° |
| 2026-05-08 03:04 | 38.60058 | -77.10460 | 10040 ft | 276 kts | 9° |
| 2026-05-08 03:04 | 38.61888 | -77.09759 | 9608 ft | 273 kts | 9° |
| 2026-05-08 03:04 | 38.63711 | -77.09061 | 9202 ft | 274 kts | 10° |
| 2026-05-08 03:04 | 38.65544 | -77.08358 | 8802 ft | 276 kts | 11° |
| 2026-05-08 03:05 | 38.67380 | -77.07650 | 8465 ft | 274 kts | 11° |
| 2026-05-08 03:05 | 38.69206 | -77.06997 | 8173 ft | 270 kts | 5° |
| 2026-05-08 03:05 | 38.71049 | -77.06752 | 7899 ft | 264 kts | 358° |
| 2026-05-08 03:05 | 38.72874 | -77.06616 | 7632 ft | 262 kts | 358° |
| 2026-05-08 03:06 | 38.74682 | -77.06469 | 7371 ft | 259 kts | 359° |
| 2026-05-08 03:06 | 38.76454 | -77.06550 | 7116 ft | 251 kts | 341° |
| 2026-05-08 03:06 | 38.78023 | -77.07431 | 6892 ft | 244 kts | 327° |
| 2026-05-08 03:06 | 38.79448 | -77.08592 | 6654 ft | 241 kts | 325° |
| 2026-05-08 03:07 | 38.80825 | -77.09753 | 6411 ft | 240 kts | 325° |
| 2026-05-08 03:07 | 38.82221 | -77.10920 | 6159 ft | 239 kts | 326° |
| 2026-05-08 03:07 | 38.83598 | -77.12150 | 6044 ft | 238 kts | 319° |
| 2026-05-08 03:07 | 38.84779 | -77.13577 | 6011 ft | 232 kts | 315° |
| 2026-05-08 03:08 | 38.85896 | -77.15013 | 5901 ft | 225 kts | 314° |
| 2026-05-08 03:08 | 38.86992 | -77.16420 | 5727 ft | 221 kts | 314° |
| 2026-05-08 03:08 | 38.88073 | -77.17792 | 5555 ft | 217 kts | 314° |
| 2026-05-08 03:08 | 38.89282 | -77.18898 | 5358 ft | 216 kts | 342° |
| 2026-05-08 03:09 | 38.90757 | -77.18866 | 5313 ft | 212 kts | 7° |
| 2026-05-08 03:09 | 38.92163 | -77.18246 | 4938 ft | 218 kts | 20° |
| 2026-05-08 03:09 | 38.93498 | -77.17284 | 4515 ft | 225 kts | 35° |
| 2026-05-08 03:09 | 38.94364 | -77.15573 | 4119 ft | 237 kts | 71° |
| 2026-05-08 03:10 | 38.94347 | -77.13457 | 3760 ft | 243 kts | 108° |
| 2026-05-08 03:10 | 38.93366 | -77.11746 | 3442 ft | 238 kts | 143° |
| 2026-05-08 03:10 | 38.92006 | -77.10544 | 3023 ft | 238 kts | 150° |
| 2026-05-08 03:10 | 38.90710 | -77.09231 | 2576 ft | 238 kts | 130° |
| 2026-05-08 03:11 | 38.89841 | -77.07381 | 1820 ft | 244 kts | 120° |
| 2026-05-08 03:11 | 38.88986 | -77.05632 | 1407 ft | 218 kts | 129° |
| 2026-05-08 03:11 | 38.87929 | -77.04354 | 827 ft | 202 kts | 152° |
| 2026-05-08 03:11 | 38.86618 | -77.03945 | 254 ft | 188 kts | 176° |
| 2026-05-08 03:12 | 38.85380 | -77.03806 | 28 ft | 166 kts | 174° |
| 2026-05-08 03:12 | 38.84448 | -77.03706 | 24 ft | 68 kts | 175° |
| 2026-05-08 03:12 | 38.84273 | -77.03708 | 23 ft | 11 kts | 231° |
| 2026-05-08 03:12 | 38.84287 | -77.03795 | 26 ft | 10 kts | 299° |
| 2026-05-08 03:13 | 38.84311 | -77.03827 | 24 ft | 2 kts | 330° |
| 2026-05-08 03:13 | 38.84333 | -77.03834 | 24 ft | 5 kts | 348° |
| 2026-05-08 03:13 | 38.84373 | -77.03853 | 25 ft | 8 kts | 318° |
| 2026-05-08 03:13 | 38.84387 | -77.03930 | 26 ft | 10 kts | 272° |
| 2026-05-08 03:14 | 38.84386 | -77.04021 | 25 ft | 7 kts | 260° |
| 2026-05-08 03:14 | 38.84384 | -77.04083 | 24 ft | 8 kts | 293° |
| 2026-05-08 03:14 | 38.84447 | -77.04124 | 23 ft | 13 kts | 351° |
| 2026-05-08 03:14 | 38.84518 | -77.04138 | 24 ft | 9 kts | 351° |
| 2026-05-08 03:15 | 38.84574 | -77.04166 | 25 ft | 9 kts | 301° |
| 2026-05-08 03:15 | 38.84571 | -77.04241 | 23 ft | 8 kts | 260° |
| 2026-05-08 03:15 | 38.84567 | -77.04308 | 23 ft | 7 kts | 281° |
| 2026-05-08 03:15 | 38.84595 | -77.04359 | 24 ft | 7 kts | 314° |
| 2026-05-08 03:16 | 38.84631 | -77.04405 | 23 ft | 8 kts | 315° |
| 2026-05-08 03:16 | 38.84678 | -77.04428 | 24 ft | 6 kts | 1° |
| 2026-05-08 03:16 | 38.84712 | -77.04406 | 23 ft | 6 kts | 41° |
| 2026-05-08 03:16 | 38.84734 | -77.04368 | 24 ft | 5 kts | 89° |
| 2026-05-08 03:17 | 38.84719 | -77.04336 | 28 ft | 2 kts | 128° |
| 2026-05-08 03:17 | 38.84717 | -77.04333 | 28 ft | 1 kts | 129° |
| 2026-05-08 03:17 | 38.84716 | -77.04331 | 27 ft | 0 kts | 129° |